createdAt,value
2023-02-11T00:01:51.241Z,-6.17
2023-02-11T00:04:54.046Z,-6.22
2023-02-11T00:07:57.314Z,-6.42
2023-02-11T00:11:00.180Z,-6.47
2023-02-11T00:14:06.072Z,-6.51
2023-02-11T00:17:08.878Z,-6.50
2023-02-11T00:20:11.879Z,-6.44
2023-02-11T00:23:15.318Z,-6.52
2023-02-11T00:26:24.096Z,-6.58
2023-02-11T00:29:27.081Z,-6.58
2023-02-11T00:32:30.122Z,-6.61
2023-02-11T00:35:32.872Z,-6.65
2023-02-11T00:38:36.601Z,-6.62
2023-02-11T00:41:39.856Z,-6.66
2023-02-11T00:44:43.544Z,-6.63
2023-02-11T00:47:46.268Z,-6.68
2023-02-11T00:50:49.092Z,-6.71
2023-02-11T00:53:52.013Z,-6.49
2023-02-11T00:56:54.715Z,-6.62
2023-02-11T00:59:57.785Z,-6.63
2023-02-11T01:03:00.913Z,-6.66
2023-02-11T01:06:04.225Z,-6.74
2023-02-11T01:09:07.251Z,-6.74
2023-02-11T01:12:11.304Z,-6.77
2023-02-11T01:15:19.942Z,-6.71
2023-02-11T01:18:22.833Z,-6.59
2023-02-11T01:21:26.064Z,-6.58
2023-02-11T01:24:29.093Z,-6.67
2023-02-11T01:27:31.940Z,-6.70
2023-02-11T01:30:34.657Z,-6.75
2023-02-11T01:33:39.801Z,-6.75
2023-02-11T01:36:42.681Z,-6.75
2023-02-11T01:39:45.484Z,-6.87
2023-02-11T01:42:50.949Z,-6.89
2023-02-11T01:46:00.938Z,-6.92
2023-02-11T01:49:06.773Z,-6.92
2023-02-11T01:52:35.477Z,-6.84
2023-02-11T01:55:56.749Z,-6.74
2023-02-11T01:59:06.203Z,-6.71
2023-02-11T02:02:13.087Z,-6.63
2023-02-11T02:05:15.782Z,-6.60
2023-02-11T02:08:47.256Z,-6.70
2023-02-11T02:11:51.339Z,-6.88
2023-02-11T02:15:17.820Z,-6.88
2023-02-11T02:18:53.659Z,-6.77
2023-02-11T02:22:33.945Z,-6.98
2023-02-11T02:25:50.321Z,-7.10
2023-02-11T02:29:17.800Z,-7.11
2023-02-11T02:32:39.696Z,-7.03
2023-02-11T02:36:01.334Z,-7.07
2023-02-11T02:39:12.374Z,-7.06
2023-02-11T02:42:17.020Z,-7.15
2023-02-11T02:45:20.624Z,-7.18
2023-02-11T02:48:35.890Z,-7.17
2023-02-11T02:51:48.672Z,-7.19
2023-02-11T02:55:25.465Z,-7.12
2023-02-11T02:58:30.963Z,-7.22
2023-02-11T03:01:50.819Z,-7.24
2023-02-11T03:05:29.580Z,-7.28
2023-02-11T03:08:42.466Z,-7.32
2023-02-11T03:11:45.786Z,-7.25
2023-02-11T03:14:51.689Z,-7.25
2023-02-11T03:17:58.918Z,-7.12
2023-02-11T03:21:03.990Z,-7.05
2023-02-11T03:24:13.125Z,-7.16
2023-02-11T03:27:20.432Z,-7.27
2023-02-11T03:30:36.045Z,-7.34
2023-02-11T03:34:02.776Z,-7.44
2023-02-11T03:37:22.264Z,-7.53
2023-02-11T03:40:40.028Z,-7.62
2023-02-11T03:43:51.309Z,-7.52
2023-02-11T03:46:55.091Z,-7.59
2023-02-11T03:49:58.857Z,-7.58
2023-02-11T03:53:03.013Z,-7.55
2023-02-11T03:56:10.165Z,-7.43
2023-02-11T03:59:13.100Z,-7.44
2023-02-11T04:02:16.283Z,-7.43
2023-02-11T04:05:19.194Z,-7.55
2023-02-11T04:08:21.944Z,-7.54
2023-02-11T04:11:24.760Z,-7.53
2023-02-11T04:14:27.565Z,-7.40
2023-02-11T04:17:30.353Z,-7.33
2023-02-11T04:20:33.144Z,-7.33
2023-02-11T04:23:36.192Z,-7.38
2023-02-11T04:26:39.020Z,-7.50
2023-02-11T04:29:42.551Z,-7.48
2023-02-11T04:32:45.408Z,-7.44
2023-02-11T04:35:48.730Z,-7.36
2023-02-11T04:38:52.113Z,-7.34
2023-02-11T04:41:54.942Z,-7.41
2023-02-11T04:44:57.812Z,-7.27
2023-02-11T04:48:03.181Z,-7.35
2023-02-11T04:51:06.355Z,-7.38
2023-02-11T04:54:09.071Z,-7.43
2023-02-11T04:57:11.894Z,-7.38
2023-02-11T05:00:15.510Z,-7.50
2023-02-11T05:03:18.451Z,-7.57
2023-02-11T05:06:21.905Z,-7.52
2023-02-11T05:09:24.655Z,-7.49
2023-02-11T05:12:27.574Z,-7.53
2023-02-11T05:15:30.656Z,-7.59
2023-02-11T05:18:33.425Z,-7.71
2023-02-11T05:21:36.307Z,-7.75
2023-02-11T05:24:39.459Z,-7.67
2023-02-11T05:27:42.265Z,-7.70
2023-02-11T05:30:45.312Z,-7.78
2023-02-11T05:33:48.154Z,-7.67
2023-02-11T05:36:50.888Z,-7.74
2023-02-11T05:39:53.652Z,-7.66
2023-02-11T05:42:56.421Z,-7.80
2023-02-11T05:45:59.396Z,-7.74
2023-02-11T05:49:02.809Z,-7.82
2023-02-11T05:52:05.604Z,-7.76
2023-02-11T05:55:08.476Z,-7.58
2023-02-11T05:58:11.294Z,-7.65
2023-02-11T06:01:14.222Z,-7.65
2023-02-11T06:04:17.014Z,-7.63
2023-02-11T06:07:20.019Z,-7.50
2023-02-11T06:10:23.025Z,-7.52
2023-02-11T06:13:25.824Z,-7.48
2023-02-11T06:16:28.967Z,-7.42
2023-02-11T06:19:31.820Z,-7.14
2023-02-11T06:22:35.200Z,-6.95
2023-02-11T06:25:38.299Z,-6.96
2023-02-11T06:28:42.106Z,-6.95
2023-02-11T06:31:45.054Z,-6.78
2023-02-11T06:34:47.948Z,-6.84
2023-02-11T06:37:50.736Z,-6.66
2023-02-11T06:40:53.558Z,-6.43
2023-02-11T06:43:56.255Z,-6.03
2023-02-11T06:46:59.079Z,-5.88
2023-02-11T06:50:02.048Z,-5.67
2023-02-11T06:53:04.997Z,-5.65
2023-02-11T06:56:10.612Z,-5.33
2023-02-11T06:59:17.270Z,-5.09
2023-02-11T07:02:21.124Z,-4.79
2023-02-11T07:05:24.260Z,-4.71
2023-02-11T07:08:27.600Z,-4.33
2023-02-11T07:11:31.403Z,-3.91
2023-02-11T07:14:34.184Z,-2.61
2023-02-11T07:17:39.880Z,0.03
2023-02-11T07:20:43.075Z,1.58
2023-02-11T07:23:46.259Z,3.28
2023-02-11T07:26:49.126Z,4.02
2023-02-11T07:29:52.118Z,4.59
2023-02-11T07:32:56.343Z,4.42
2023-02-11T07:36:01.257Z,6.12
2023-02-11T07:39:04.500Z,7.01
2023-02-11T07:42:07.404Z,6.96
2023-02-11T07:45:11.115Z,8.24
2023-02-11T07:48:13.869Z,8.54
2023-02-11T07:51:19.743Z,8.14
2023-02-11T07:54:22.954Z,8.82
2023-02-11T07:57:25.741Z,8.86
2023-02-11T08:00:28.587Z,9.44
2023-02-11T08:03:32.188Z,10.54
2023-02-11T08:06:40.166Z,11.16
2023-02-11T08:09:43.369Z,12.23
2023-02-11T08:12:46.102Z,11.90
2023-02-11T08:15:49.166Z,12.22
2023-02-11T08:18:53.474Z,12.89
2023-02-11T08:21:57.493Z,13.47
2023-02-11T08:25:00.497Z,12.88
2023-02-11T08:28:03.345Z,13.31
2023-02-11T08:31:08.327Z,14.37
2023-02-11T08:34:14.354Z,15.25
2023-02-11T08:37:17.878Z,14.05
2023-02-11T08:40:20.821Z,15.18
2023-02-11T08:43:23.761Z,14.98
2023-02-11T08:46:27.455Z,14.14
2023-02-11T08:49:31.665Z,14.75
2023-02-11T08:52:36.038Z,14.91
2023-02-11T08:55:38.933Z,15.24
2023-02-11T08:58:42.425Z,16.00
2023-02-11T09:01:47.413Z,14.84
2023-02-11T09:04:50.291Z,14.49
2023-02-11T09:07:53.087Z,15.03
2023-02-11T09:10:57.524Z,15.68
2023-02-11T09:14:01.884Z,15.06
2023-02-11T09:17:05.378Z,15.71
2023-02-11T09:20:10.762Z,15.47
2023-02-11T09:23:13.986Z,15.40
2023-02-11T09:26:20.693Z,16.19
2023-02-11T09:29:24.074Z,15.96
2023-02-11T09:32:27.152Z,16.46
2023-02-11T09:35:29.932Z,16.44
2023-02-11T09:38:33.607Z,16.67
2023-02-11T09:41:53.633Z,17.51
2023-02-11T09:45:00.729Z,19.03
2023-02-11T09:48:16.172Z,18.35
2023-02-11T09:51:26.693Z,16.26
2023-02-11T09:54:37.314Z,13.59
2023-02-11T09:57:40.081Z,12.38
2023-02-11T10:01:11.592Z,11.06
2023-02-11T10:04:29.535Z,10.51
2023-02-11T10:07:51.720Z,10.61
2023-02-11T10:11:08.706Z,10.77
2023-02-11T10:14:26.888Z,10.67
2023-02-11T10:17:35.257Z,11.07
2023-02-11T10:21:04.329Z,10.87
2023-02-11T10:24:14.191Z,11.06
2023-02-11T10:27:21.388Z,14.68
2023-02-11T10:30:24.321Z,15.83
2023-02-11T10:34:00.682Z,16.38
2023-02-11T10:37:04.260Z,15.35
2023-02-11T10:40:13.997Z,15.21
2023-02-11T10:43:19.540Z,14.54
2023-02-11T10:46:31.401Z,15.73
2023-02-11T10:49:42.981Z,14.75
2023-02-11T10:52:45.908Z,13.84
2023-02-11T10:55:55.023Z,13.92
2023-02-11T10:59:05.064Z,16.07
2023-02-11T11:02:32.192Z,15.85
2023-02-11T11:05:48.485Z,18.71
2023-02-11T11:08:52.272Z,17.90
2023-02-11T11:11:55.612Z,15.52
2023-02-11T11:15:16.585Z,13.51
2023-02-11T11:18:23.228Z,15.88
2023-02-11T11:21:36.477Z,16.80
2023-02-11T11:24:46.864Z,15.94
2023-02-11T11:27:51.581Z,16.92
2023-02-11T11:30:57.154Z,18.29
2023-02-11T11:34:03.475Z,19.04
2023-02-11T11:37:20.234Z,18.60
2023-02-11T11:40:27.103Z,17.49
2023-02-11T11:43:30.207Z,14.82
2023-02-11T11:46:41.332Z,14.41
2023-02-11T11:50:06.911Z,13.18
2023-02-11T11:53:21.005Z,11.85
2023-02-11T11:56:27.634Z,11.30
2023-02-11T11:59:30.717Z,10.51
2023-02-11T12:03:04.579Z,10.32
2023-02-11T12:06:35.794Z,10.57
2023-02-11T12:09:41.439Z,10.13
2023-02-11T12:13:10.287Z,10.04
2023-02-11T12:16:41.090Z,9.37
2023-02-11T12:20:18.246Z,10.18
2023-02-11T12:23:30.900Z,10.30
2023-02-11T12:26:43.503Z,10.05
2023-02-11T12:30:03.738Z,9.79
2023-02-11T12:33:34.665Z,10.04
2023-02-11T12:36:54.483Z,9.56
2023-02-11T12:40:28.753Z,10.35
2023-02-11T12:43:44.118Z,10.86
2023-02-11T12:47:16.303Z,11.22
2023-02-11T12:50:49.500Z,11.35
2023-02-11T12:54:11.100Z,12.57
2023-02-11T12:57:23.517Z,12.37
2023-02-11T13:00:40.754Z,12.32
2023-02-11T13:03:48.485Z,10.98
2023-02-11T13:07:00.070Z,9.84
2023-02-11T13:10:26.300Z,9.97
2023-02-11T13:13:34.632Z,9.99
2023-02-11T13:16:46.147Z,11.03
2023-02-11T13:19:55.682Z,12.43
2023-02-11T13:23:23.942Z,14.07
2023-02-11T13:26:38.254Z,14.67
2023-02-11T13:30:12.090Z,13.77
2023-02-11T13:33:45.925Z,13.63
2023-02-11T13:36:55.624Z,11.83
2023-02-11T13:40:22.204Z,10.77
2023-02-11T13:43:29.088Z,12.69
2023-02-11T13:46:53.937Z,13.15
2023-02-11T13:49:58.389Z,13.33
2023-02-11T13:53:04.020Z,13.88
2023-02-11T13:56:13.221Z,13.00
2023-02-11T13:59:25.532Z,13.51
2023-02-11T14:02:54.523Z,12.57
2023-02-11T14:06:46.720Z,11.83
2023-02-11T14:09:57.687Z,12.90
2023-02-11T14:13:23.409Z,12.53
2023-02-11T14:16:37.348Z,12.38
2023-02-11T14:19:46.695Z,11.88
2023-02-11T14:22:52.968Z,10.36
2023-02-11T14:26:21.340Z,10.66
2023-02-11T14:29:42.622Z,9.10
2023-02-11T14:33:05.728Z,8.00
2023-02-11T14:36:44.842Z,7.31
2023-02-11T14:40:08.915Z,6.61
2023-02-11T14:43:29.566Z,6.59
2023-02-11T14:46:33.314Z,6.41
2023-02-11T14:49:40.334Z,6.33
2023-02-11T14:52:44.577Z,6.19
2023-02-11T14:55:52.980Z,6.00
2023-02-11T14:58:56.081Z,5.88
2023-02-11T15:01:59.538Z,5.68
2023-02-11T15:05:19.777Z,5.68
2023-02-11T15:08:23.213Z,5.51
2023-02-11T15:11:28.868Z,5.48
2023-02-11T15:14:36.615Z,5.35
2023-02-11T15:17:39.653Z,5.39
2023-02-11T15:20:42.553Z,5.13
2023-02-11T15:23:56.364Z,5.13
2023-02-11T15:27:18.613Z,4.99
2023-02-11T15:30:21.724Z,4.85
2023-02-11T15:33:30.155Z,4.71
2023-02-11T15:36:36.411Z,4.61
2023-02-11T15:39:42.401Z,4.56
2023-02-11T15:43:08.363Z,4.55
2023-02-11T15:46:17.138Z,4.61
2023-02-11T15:49:21.547Z,4.56
2023-02-11T15:52:27.592Z,4.51
2023-02-11T15:55:31.166Z,4.51
2023-02-11T15:58:43.576Z,4.59
2023-02-11T16:01:48.339Z,4.48
2023-02-11T16:04:57.626Z,4.43
2023-02-11T16:08:01.762Z,4.52
2023-02-11T16:11:09.227Z,4.39
2023-02-11T16:14:37.227Z,4.37
2023-02-11T16:17:40.297Z,4.23
2023-02-11T16:20:48.100Z,4.18
2023-02-11T16:23:56.793Z,4.14
2023-02-11T16:27:06.870Z,4.03
2023-02-11T16:30:32.556Z,3.85
2023-02-11T16:33:35.803Z,3.75
2023-02-11T16:36:38.887Z,3.79
2023-02-11T16:39:42.314Z,3.71
2023-02-11T16:42:45.417Z,3.76
2023-02-11T16:45:49.521Z,3.66
2023-02-11T16:48:53.161Z,3.60
2023-02-11T16:52:01.358Z,3.58
2023-02-11T16:55:05.563Z,3.68
2023-02-11T16:58:08.775Z,3.74
2023-02-11T17:01:14.134Z,3.61
2023-02-11T17:04:21.179Z,3.47
2023-02-11T17:07:24.110Z,3.39
2023-02-11T17:10:27.113Z,3.30
2023-02-11T17:13:30.357Z,3.26
2023-02-11T17:16:34.411Z,3.21
2023-02-11T17:19:38.221Z,3.22
2023-02-11T17:22:42.145Z,2.78
2023-02-11T17:25:45.177Z,2.82
2023-02-11T17:28:48.625Z,2.68
2023-02-11T17:31:52.783Z,2.51
2023-02-11T17:34:55.904Z,2.61
2023-02-11T17:37:59.467Z,2.46
2023-02-11T17:41:03.549Z,2.51
2023-02-11T17:44:07.980Z,2.59
2023-02-11T17:47:12.342Z,2.65
2023-02-11T17:50:15.919Z,2.69
2023-02-11T17:53:18.646Z,2.75
2023-02-11T17:56:21.705Z,2.84
2023-02-11T17:59:26.167Z,2.99
2023-02-11T18:02:29.761Z,2.87
2023-02-11T18:05:37.216Z,2.93
2023-02-11T18:08:41.894Z,2.97
2023-02-11T18:11:45.460Z,3.04
2023-02-11T18:14:48.648Z,3.03
2023-02-11T18:17:51.696Z,3.06
2023-02-11T18:20:59.948Z,2.95
2023-02-11T18:24:06.777Z,2.85
2023-02-11T18:27:10.102Z,2.82
2023-02-11T18:30:18.020Z,2.90
2023-02-11T18:33:21.439Z,2.82
2023-02-11T18:36:24.561Z,2.64
2023-02-11T18:39:28.015Z,2.52
2023-02-11T18:42:33.277Z,2.60
2023-02-11T18:45:36.409Z,2.74
2023-02-11T18:48:40.408Z,2.71
2023-02-11T18:51:43.776Z,2.79
2023-02-11T18:54:46.856Z,2.79
2023-02-11T18:57:50.238Z,2.84
2023-02-11T19:00:53.167Z,2.86
2023-02-11T19:03:57.631Z,2.91
2023-02-11T19:07:04.146Z,2.84
2023-02-11T19:10:08.887Z,2.96
2023-02-11T19:13:13.094Z,3.04
2023-02-11T19:16:19.857Z,3.02
2023-02-11T19:19:25.804Z,2.98
2023-02-11T19:22:28.810Z,2.81
2023-02-11T19:25:31.677Z,2.77
2023-02-11T19:28:37.173Z,2.90
2023-02-11T19:31:41.027Z,2.83
2023-02-11T19:34:44.116Z,2.80
2023-02-11T19:37:47.179Z,2.81
2023-02-11T19:40:56.178Z,2.91
2023-02-11T19:44:00.878Z,2.94
2023-02-11T19:47:04.506Z,2.92
2023-02-11T19:50:08.899Z,2.95
2023-02-11T19:53:12.104Z,3.02
2023-02-11T19:56:16.085Z,3.04
2023-02-11T19:59:19.739Z,2.97
2023-02-11T20:02:23.625Z,3.07
2023-02-11T20:05:26.774Z,3.03
2023-02-11T20:08:29.749Z,2.96
2023-02-11T20:11:34.571Z,2.94
2023-02-11T20:14:39.017Z,2.96
2023-02-11T20:17:42.065Z,3.03
2023-02-11T20:20:45.092Z,2.92
2023-02-11T20:23:50.195Z,3.00
2023-02-11T20:26:56.128Z,3.03
2023-02-11T20:29:59.375Z,3.18
2023-02-11T20:33:02.664Z,3.27
2023-02-11T20:36:08.705Z,3.43
2023-02-11T20:39:17.310Z,3.56
2023-02-11T20:42:20.441Z,3.64
2023-02-11T20:45:23.575Z,3.72
2023-02-11T20:48:27.268Z,3.74
2023-02-11T20:51:32.989Z,3.75
2023-02-11T20:54:36.126Z,3.77
2023-02-11T20:57:39.270Z,3.75
2023-02-11T21:00:42.280Z,3.76
2023-02-11T21:03:50.352Z,3.79
2023-02-11T21:06:59.466Z,3.79
2023-02-11T21:10:02.697Z,3.80
2023-02-11T21:13:05.963Z,3.84
2023-02-11T21:16:13.668Z,3.73
2023-02-11T21:19:17.770Z,3.75
2023-02-11T21:22:20.952Z,3.72
2023-02-11T21:25:24.028Z,3.68
2023-02-11T21:28:27.790Z,3.73
2023-02-11T21:31:33.114Z,3.69
2023-02-11T21:34:36.621Z,3.70
2023-02-11T21:37:39.857Z,3.73
2023-02-11T21:40:42.808Z,3.70
2023-02-11T21:43:46.930Z,3.69
2023-02-11T21:46:49.859Z,3.58
2023-02-11T21:49:53.279Z,3.48
2023-02-11T21:52:56.365Z,3.43
2023-02-11T21:56:07.579Z,3.49
2023-02-11T21:59:13.015Z,3.51
2023-02-11T22:02:16.399Z,3.50
2023-02-11T22:05:19.400Z,3.47
2023-02-11T22:08:22.488Z,3.45
2023-02-11T22:11:26.709Z,3.44
2023-02-11T22:14:32.189Z,3.55
2023-02-11T22:17:35.398Z,3.58
2023-02-11T22:20:38.518Z,3.52
2023-02-11T22:23:41.417Z,3.54
2023-02-11T22:26:44.520Z,3.62
2023-02-11T22:29:47.990Z,3.56
2023-02-11T22:32:50.926Z,3.58
2023-02-11T22:36:06.515Z,3.67
2023-02-11T22:39:13.603Z,3.65
2023-02-11T22:42:16.403Z,3.69
2023-02-11T22:45:19.249Z,3.69
2023-02-11T22:48:23.271Z,3.74
2023-02-11T22:51:29.393Z,3.79
2023-02-11T22:54:32.315Z,3.72
2023-02-11T22:57:35.321Z,3.74
2023-02-11T23:00:42.266Z,3.79
2023-02-11T23:03:45.491Z,3.79
2023-02-11T23:06:48.652Z,3.84
2023-02-11T23:09:51.638Z,3.84
2023-02-11T23:12:54.543Z,3.89
2023-02-11T23:15:57.506Z,3.96
2023-02-11T23:19:04.458Z,4.06
2023-02-11T23:22:08.861Z,4.00
2023-02-11T23:25:11.666Z,4.16
2023-02-11T23:28:14.503Z,4.34
2023-02-11T23:31:23.697Z,4.46
2023-02-11T23:34:26.893Z,4.51
2023-02-11T23:37:29.644Z,4.40
2023-02-11T23:40:32.418Z,4.33
2023-02-11T23:43:35.240Z,4.35
2023-02-11T23:46:38.237Z,4.29
2023-02-11T23:49:41.064Z,4.31
2023-02-11T23:52:44.268Z,4.35
2023-02-11T23:55:47.157Z,4.20
2023-02-11T23:58:52.181Z,4.24
